sensor_id;sensor_type;location;lat;lon;timestamp;pressure;altitude;pressure_sealevel;temperature;humidity
68793;BME280;55778;54.346;10.210;2023-09-19T00:02:17;99739.19;;;16.15;100.00
68793;BME280;55778;54.346;10.210;2023-09-19T00:04:42;99744.69;;;16.15;100.00
68793;BME280;55778;54.346;10.210;2023-09-19T00:07:08;99748.72;;;16.19;100.00
68793;BME280;55778;54.346;10.210;2023-09-19T00:09:34;99746.38;;;16.16;100.00
68793;BME280;55778;54.346;10.210;2023-09-19T00:12:05;99745.75;;;16.20;100.00
68793;BME280;55778;54.346;10.210;2023-09-19T00:14:30;99748.34;;;16.28;100.00
68793;BME280;55778;54.346;10.210;2023-09-19T00:16:59;99743.91;;;16.27;100.00
68793;BME280;55778;54.346;10.210;2023-09-19T00:19:26;99736.72;;;16.33;100.00
68793;BME280;55778;54.346;10.210;2023-09-19T00:21:51;99748.13;;;16.30;100.00
68793;BME280;55778;54.346;10.210;2023-09-19T00:24:18;99750.22;;;16.28;100.00
68793;BME280;55778;54.346;10.210;2023-09-19T00:26:43;99747.06;;;16.24;100.00
68793;BME280;55778;54.346;10.210;2023-09-19T00:29:09;99746.41;;;16.22;100.00
68793;BME280;55778;54.346;10.210;2023-09-19T00:31:34;99753.38;;;16.18;100.00
68793;BME280;55778;54.346;10.210;2023-09-19T00:34:02;99750.84;;;16.23;100.00
68793;BME280;55778;54.346;10.210;2023-09-19T00:36:31;99755.47;;;16.16;100.00
68793;BME280;55778;54.346;10.210;2023-09-19T00:38:58;99755.72;;;16.21;100.00
68793;BME280;55778;54.346;10.210;2023-09-19T00:41:24;99757.59;;;16.14;100.00
68793;BME280;55778;54.346;10.210;2023-09-19T00:43:50;99763.78;;;16.23;100.00
68793;BME280;55778;54.346;10.210;2023-09-19T00:46:18;99772.22;;;16.21;100.00
68793;BME280;55778;54.346;10.210;2023-09-19T00:48:44;99762.91;;;16.22;100.00
68793;BME280;55778;54.346;10.210;2023-09-19T00:51:10;99764.19;;;16.20;100.00
68793;BME280;55778;54.346;10.210;2023-09-19T00:53:36;99756.78;;;16.27;100.00
68793;BME280;55778;54.346;10.210;2023-09-19T00:56:05;99766.94;;;16.26;100.00
68793;BME280;55778;54.346;10.210;2023-09-19T00:58:34;99759.78;;;16.32;100.00
68793;BME280;55778;54.346;10.210;2023-09-19T01:01:00;99755.09;;;16.26;100.00
68793;BME280;55778;54.346;10.210;2023-09-19T01:03:27;99765.00;;;16.20;100.00
68793;BME280;55778;54.346;10.210;2023-09-19T01:05:53;99760.97;;;16.16;100.00
68793;BME280;55778;54.346;10.210;2023-09-19T01:08:18;99778.53;;;16.15;100.00
68793;BME280;55778;54.346;10.210;2023-09-19T01:10:51;99777.47;;;16.16;100.00
68793;BME280;55778;54.346;10.210;2023-09-19T01:18:40;99780.06;;;16.24;100.00
68793;BME280;55778;54.346;10.210;2023-09-19T01:24:22;99779.44;;;16.29;100.00
68793;BME280;55778;54.346;10.210;2023-09-19T01:29:39;99795.06;;;16.28;100.00
68793;BME280;55778;54.346;10.210;2023-09-19T01:32:10;99796.34;;;16.26;100.00
68793;BME280;55778;54.346;10.210;2023-09-19T01:34:48;99808.22;;;16.33;100.00
68793;BME280;55778;54.346;10.210;2023-09-19T01:37:18;99798.47;;;16.30;100.00
68793;BME280;55778;54.346;10.210;2023-09-19T01:39:56;99794.44;;;16.26;100.00
68793;BME280;55778;54.346;10.210;2023-09-19T01:45:31;99790.03;;;16.32;100.00
68793;BME280;55778;54.346;10.210;2023-09-19T01:48:53;99792.31;;;16.28;100.00
68793;BME280;55778;54.346;10.210;2023-09-19T01:51:14;99787.00;;;16.20;100.00
68793;BME280;55778;54.346;10.210;2023-09-19T01:54:12;99797.13;;;16.13;100.00
68793;BME280;55778;54.346;10.210;2023-09-19T01:56:45;99789.34;;;16.17;100.00
68793;BME280;55778;54.346;10.210;2023-09-19T01:59:16;99794.19;;;16.15;100.00
68793;BME280;55778;54.346;10.210;2023-09-19T02:01:45;99805.38;;;16.13;100.00
68793;BME280;55778;54.346;10.210;2023-09-19T02:04:12;99810.00;;;16.06;100.00
68793;BME280;55778;54.346;10.210;2023-09-19T02:06:41;99802.63;;;16.07;100.00
68793;BME280;55778;54.346;10.210;2023-09-19T02:09:07;99812.16;;;16.17;100.00
68793;BME280;55778;54.346;10.210;2023-09-19T02:11:32;99814.28;;;16.22;100.00
68793;BME280;55778;54.346;10.210;2023-09-19T02:13:58;99813.88;;;16.18;100.00
68793;BME280;55778;54.346;10.210;2023-09-19T02:16:24;99818.06;;;16.14;100.00
68793;BME280;55778;54.346;10.210;2023-09-19T02:18:50;99822.53;;;16.15;100.00
68793;BME280;55778;54.346;10.210;2023-09-19T02:21:17;99819.31;;;16.12;100.00
68793;BME280;55778;54.346;10.210;2023-09-19T02:23:44;99824.16;;;16.03;100.00
68793;BME280;55778;54.346;10.210;2023-09-19T02:26:09;99832.13;;;15.98;100.00
68793;BME280;55778;54.346;10.210;2023-09-19T02:28:37;99833.81;;;15.92;100.00
68793;BME280;55778;54.346;10.210;2023-09-19T02:31:02;99831.88;;;15.86;100.00
68793;BME280;55778;54.346;10.210;2023-09-19T02:33:30;99837.09;;;15.75;100.00
68793;BME280;55778;54.346;10.210;2023-09-19T02:35:58;99825.63;;;15.65;100.00
68793;BME280;55778;54.346;10.210;2023-09-19T02:38:24;99832.91;;;15.51;100.00
68793;BME280;55778;54.346;10.210;2023-09-19T02:40:51;99829.09;;;15.52;100.00
68793;BME280;55778;54.346;10.210;2023-09-19T02:43:17;99833.50;;;15.47;100.00
68793;BME280;55778;54.346;10.210;2023-09-19T02:45:42;99823.56;;;15.46;100.00
68793;BME280;55778;54.346;10.210;2023-09-19T02:48:08;99820.25;;;15.29;100.00
68793;BME280;55778;54.346;10.210;2023-09-19T02:50:33;99835.38;;;15.25;100.00
68793;BME280;55778;54.346;10.210;2023-09-19T02:52:59;99834.09;;;15.21;100.00
68793;BME280;55778;54.346;10.210;2023-09-19T02:55:25;99835.75;;;15.16;100.00
68793;BME280;55778;54.346;10.210;2023-09-19T02:57:52;99833.19;;;15.14;100.00
68793;BME280;55778;54.346;10.210;2023-09-19T03:00:19;99834.00;;;15.08;100.00
68793;BME280;55778;54.346;10.210;2023-09-19T03:02:49;99832.94;;;15.09;100.00
68793;BME280;55778;54.346;10.210;2023-09-19T03:05:14;99839.91;;;15.12;100.00
68793;BME280;55778;54.346;10.210;2023-09-19T03:07:40;99838.88;;;15.13;100.00
68793;BME280;55778;54.346;10.210;2023-09-19T03:10:08;99842.25;;;15.15;100.00
68793;BME280;55778;54.346;10.210;2023-09-19T03:12:34;99844.81;;;15.16;100.00
68793;BME280;55778;54.346;10.210;2023-09-19T03:15:00;99851.56;;;15.14;100.00
68793;BME280;55778;54.346;10.210;2023-09-19T03:17:25;99854.75;;;15.17;100.00
68793;BME280;55778;54.346;10.210;2023-09-19T03:19:51;99865.06;;;15.15;100.00
68793;BME280;55778;54.346;10.210;2023-09-19T03:22:16;99866.44;;;15.26;100.00
68793;BME280;55778;54.346;10.210;2023-09-19T03:24:42;99871.63;;;15.35;100.00
68793;BME280;55778;54.346;10.210;2023-09-19T03:27:12;99866.59;;;15.39;100.00
68793;BME280;55778;54.346;10.210;2023-09-19T03:29:42;99868.94;;;15.42;100.00
68793;BME280;55778;54.346;10.210;2023-09-19T03:32:07;99865.59;;;15.46;100.00
68793;BME280;55778;54.346;10.210;2023-09-19T03:34:36;99874.63;;;15.40;100.00
68793;BME280;55778;54.346;10.210;2023-09-19T03:37:03;99865.34;;;15.41;100.00
68793;BME280;55778;54.346;10.210;2023-09-19T03:39:29;99864.50;;;15.41;100.00
68793;BME280;55778;54.346;10.210;2023-09-19T03:41:54;99862.44;;;15.49;100.00
68793;BME280;55778;54.346;10.210;2023-09-19T03:44:19;99859.41;;;15.38;100.00
68793;BME280;55778;54.346;10.210;2023-09-19T03:46:45;99859.09;;;15.33;100.00
68793;BME280;55778;54.346;10.210;2023-09-19T03:49:10;99860.16;;;15.32;100.00
68793;BME280;55778;54.346;10.210;2023-09-19T03:51:35;99868.72;;;15.22;100.00
68793;BME280;55778;54.346;10.210;2023-09-19T03:54:02;99860.88;;;15.19;100.00
68793;BME280;55778;54.346;10.210;2023-09-19T03:56:29;99861.47;;;15.15;100.00
68793;BME280;55778;54.346;10.210;2023-09-19T03:58:54;99870.69;;;15.07;100.00
68793;BME280;55778;54.346;10.210;2023-09-19T04:01:20;99869.84;;;15.07;100.00
68793;BME280;55778;54.346;10.210;2023-09-19T04:03:45;99875.25;;;15.00;100.00
68793;BME280;55778;54.346;10.210;2023-09-19T04:06:15;99881.22;;;15.04;100.00
68793;BME280;55778;54.346;10.210;2023-09-19T04:08:41;99890.75;;;15.08;100.00
68793;BME280;55778;54.346;10.210;2023-09-19T04:11:07;99889.69;;;15.09;100.00
68793;BME280;55778;54.346;10.210;2023-09-19T04:13:32;99889.06;;;15.07;100.00
68793;BME280;55778;54.346;10.210;2023-09-19T04:15:58;99894.47;;;15.00;100.00
68793;BME280;55778;54.346;10.210;2023-09-19T04:18:23;99896.69;;;14.90;100.00
68793;BME280;55778;54.346;10.210;2023-09-19T04:20:49;99891.31;;;14.82;100.00
68793;BME280;55778;54.346;10.210;2023-09-19T04:23:15;99899.16;;;14.85;100.00
68793;BME280;55778;54.346;10.210;2023-09-19T04:25:41;99908.53;;;14.76;100.00
68793;BME280;55778;54.346;10.210;2023-09-19T04:28:06;99920.28;;;14.70;100.00
68793;BME280;55778;54.346;10.210;2023-09-19T04:30:31;99921.28;;;14.04;100.00
68793;BME280;55778;54.346;10.210;2023-09-19T04:32:57;99931.06;;;13.70;100.00
68793;BME280;55778;54.346;10.210;2023-09-19T04:35:22;99921.19;;;13.46;100.00
68793;BME280;55778;54.346;10.210;2023-09-19T04:37:47;99938.94;;;13.28;100.00
68793;BME280;55778;54.346;10.210;2023-09-19T04:40:13;99936.69;;;13.09;100.00
68793;BME280;55778;54.346;10.210;2023-09-19T04:42:43;99937.47;;;12.95;100.00
68793;BME280;55778;54.346;10.210;2023-09-19T04:45:09;99939.28;;;12.72;100.00
68793;BME280;55778;54.346;10.210;2023-09-19T04:47:36;99938.72;;;12.84;100.00
68793;BME280;55778;54.346;10.210;2023-09-19T04:50:08;99946.66;;;12.71;100.00
68793;BME280;55778;54.346;10.210;2023-09-19T04:52:38;99954.22;;;12.61;100.00
68793;BME280;55778;54.346;10.210;2023-09-19T04:55:04;99958.34;;;12.57;100.00
68793;BME280;55778;54.346;10.210;2023-09-19T04:57:29;99972.69;;;12.90;100.00
68793;BME280;55778;54.346;10.210;2023-09-19T04:59:56;99977.28;;;12.89;100.00
68793;BME280;55778;54.346;10.210;2023-09-19T05:02:22;99978.16;;;12.90;100.00
68793;BME280;55778;54.346;10.210;2023-09-19T05:04:47;99980.19;;;12.96;100.00
68793;BME280;55778;54.346;10.210;2023-09-19T05:07:13;99974.53;;;12.97;100.00
68793;BME280;55778;54.346;10.210;2023-09-19T05:09:38;99976.72;;;13.10;100.00
68793;BME280;55778;54.346;10.210;2023-09-19T05:12:04;99972.44;;;13.07;100.00
68793;BME280;55778;54.346;10.210;2023-09-19T05:14:29;99984.19;;;13.16;100.00
68793;BME280;55778;54.346;10.210;2023-09-19T05:16:55;99973.63;;;13.13;100.00
68793;BME280;55778;54.346;10.210;2023-09-19T05:19:20;99977.88;;;13.15;100.00
68793;BME280;55778;54.346;10.210;2023-09-19T05:21:45;99980.91;;;13.20;100.00
68793;BME280;55778;54.346;10.210;2023-09-19T05:24:12;99977.97;;;13.22;100.00
68793;BME280;55778;54.346;10.210;2023-09-19T05:26:39;99977.31;;;13.20;100.00
68793;BME280;55778;54.346;10.210;2023-09-19T05:29:05;99974.22;;;13.23;100.00
68793;BME280;55778;54.346;10.210;2023-09-19T05:31:33;99988.38;;;13.26;100.00
68793;BME280;55778;54.346;10.210;2023-09-19T05:34:01;99992.66;;;13.29;100.00
68793;BME280;55778;54.346;10.210;2023-09-19T05:36:26;99987.78;;;13.39;100.00
68793;BME280;55778;54.346;10.210;2023-09-19T05:38:54;99986.28;;;13.36;100.00
68793;BME280;55778;54.346;10.210;2023-09-19T05:41:20;99975.34;;;13.36;100.00
68793;BME280;55778;54.346;10.210;2023-09-19T05:43:49;99983.81;;;13.41;100.00
68793;BME280;55778;54.346;10.210;2023-09-19T05:46:15;99981.41;;;13.46;100.00
68793;BME280;55778;54.346;10.210;2023-09-19T05:48:41;99977.75;;;13.54;100.00
68793;BME280;55778;54.346;10.210;2023-09-19T05:51:06;99986.75;;;13.40;100.00
68793;BME280;55778;54.346;10.210;2023-09-19T05:53:32;99991.38;;;13.39;100.00
68793;BME280;55778;54.346;10.210;2023-09-19T05:55:57;99990.72;;;13.37;100.00
68793;BME280;55778;54.346;10.210;2023-09-19T05:58:26;99989.66;;;13.38;100.00
68793;BME280;55778;54.346;10.210;2023-09-19T06:00:51;99995.28;;;13.45;100.00
68793;BME280;55778;54.346;10.210;2023-09-19T06:03:17;99986.94;;;13.38;100.00
68793;BME280;55778;54.346;10.210;2023-09-19T06:05:44;99999.41;;;13.41;100.00
68793;BME280;55778;54.346;10.210;2023-09-19T06:08:11;99970.31;;;13.62;100.00
68793;BME280;55778;54.346;10.210;2023-09-19T06:10:37;99983.97;;;13.85;100.00
68793;BME280;55778;54.346;10.210;2023-09-19T06:13:03;99971.91;;;14.08;100.00
68793;BME280;55778;54.346;10.210;2023-09-19T06:15:34;99975.38;;;14.40;100.00
68793;BME280;55778;54.346;10.210;2023-09-19T06:18:01;99979.34;;;14.52;100.00
68793;BME280;55778;54.346;10.210;2023-09-19T06:20:30;99981.00;;;14.67;100.00
68793;BME280;55778;54.346;10.210;2023-09-19T06:22:56;99986.41;;;14.61;100.00
68793;BME280;55778;54.346;10.210;2023-09-19T06:25:21;99992.84;;;14.53;100.00
68793;BME280;55778;54.346;10.210;2023-09-19T06:27:52;99980.75;;;14.62;100.00
68793;BME280;55778;54.346;10.210;2023-09-19T06:30:19;99993.03;;;14.66;100.00
68793;BME280;55778;54.346;10.210;2023-09-19T06:32:44;99992.81;;;14.82;100.00
68793;BME280;55778;54.346;10.210;2023-09-19T06:35:11;100001.91;;;14.83;100.00
68793;BME280;55778;54.346;10.210;2023-09-19T06:37:38;99992.06;;;15.24;100.00
68793;BME280;55778;54.346;10.210;2023-09-19T06:40:14;100000.66;;;15.35;100.00
68793;BME280;55778;54.346;10.210;2023-09-19T06:42:43;99998.31;;;15.53;100.00
68793;BME280;55778;54.346;10.210;2023-09-19T06:45:15;99999.84;;;16.05;100.00
68793;BME280;55778;54.346;10.210;2023-09-19T06:47:47;100000.09;;;16.37;100.00
68793;BME280;55778;54.346;10.210;2023-09-19T06:50:19;100008.06;;;16.94;100.00
68793;BME280;55778;54.346;10.210;2023-09-19T06:52:48;100009.50;;;16.83;100.00
68793;BME280;55778;54.346;10.210;2023-09-19T06:55:15;99999.50;;;16.76;100.00
68793;BME280;55778;54.346;10.210;2023-09-19T06:57:42;100007.28;;;16.66;100.00
68793;BME280;55778;54.346;10.210;2023-09-19T07:00:08;100003.91;;;16.36;100.00
68793;BME280;55778;54.346;10.210;2023-09-19T07:02:40;100018.31;;;16.17;100.00
68793;BME280;55778;54.346;10.210;2023-09-19T07:05:06;100023.53;;;15.84;100.00
68793;BME280;55778;54.346;10.210;2023-09-19T07:07:32;100016.16;;;15.43;100.00
68793;BME280;55778;54.346;10.210;2023-09-19T07:10:03;100020.53;;;15.37;100.00
68793;BME280;55778;54.346;10.210;2023-09-19T07:12:31;100029.28;;;15.12;100.00
68793;BME280;55778;54.346;10.210;2023-09-19T07:14:56;100015.59;;;14.97;100.00
68793;BME280;55778;54.346;10.210;2023-09-19T07:17:22;100030.66;;;14.87;100.00
68793;BME280;55778;54.346;10.210;2023-09-19T07:19:49;100018.75;;;14.80;100.00
68793;BME280;55778;54.346;10.210;2023-09-19T07:22:17;100018.66;;;14.88;100.00
68793;BME280;55778;54.346;10.210;2023-09-19T07:24:48;100020.63;;;14.79;100.00
68793;BME280;55778;54.346;10.210;2023-09-19T07:27:14;100022.50;;;14.93;100.00
68793;BME280;55778;54.346;10.210;2023-09-19T07:29:39;100026.84;;;15.02;100.00
68793;BME280;55778;54.346;10.210;2023-09-19T07:32:05;100036.31;;;15.00;100.00
68793;BME280;55778;54.346;10.210;2023-09-19T07:34:32;100036.13;;;15.01;100.00
68793;BME280;55778;54.346;10.210;2023-09-19T07:36:57;100038.94;;;15.08;100.00
68793;BME280;55778;54.346;10.210;2023-09-19T07:39:22;100036.91;;;14.95;100.00
68793;BME280;55778;54.346;10.210;2023-09-19T07:41:48;100037.34;;;14.99;100.00
68793;BME280;55778;54.346;10.210;2023-09-19T07:44:14;100042.66;;;15.00;100.00
68793;BME280;55778;54.346;10.210;2023-09-19T07:46:40;100050.31;;;15.05;100.00
68793;BME280;55778;54.346;10.210;2023-09-19T07:49:05;100052.47;;;15.09;100.00
68793;BME280;55778;54.346;10.210;2023-09-19T07:51:30;100054.75;;;15.06;100.00
68793;BME280;55778;54.346;10.210;2023-09-19T07:53:56;100063.16;;;15.04;100.00
68793;BME280;55778;54.346;10.210;2023-09-19T07:56:25;100060.72;;;15.09;100.00
68793;BME280;55778;54.346;10.210;2023-09-19T07:58:51;100060.50;;;15.11;100.00
68793;BME280;55778;54.346;10.210;2023-09-19T08:01:17;100069.09;;;15.22;100.00
68793;BME280;55778;54.346;10.210;2023-09-19T08:03:42;100061.47;;;15.53;100.00
68793;BME280;55778;54.346;10.210;2023-09-19T08:06:09;100069.94;;;15.73;100.00
68793;BME280;55778;54.346;10.210;2023-09-19T08:08:35;100057.75;;;16.24;100.00
68793;BME280;55778;54.346;10.210;2023-09-19T08:11:05;100060.00;;;16.42;100.00
68793;BME280;55778;54.346;10.210;2023-09-19T08:13:41;100060.09;;;16.82;100.00
68793;BME280;55778;54.346;10.210;2023-09-19T08:16:09;100065.81;;;17.95;100.00
68793;BME280;55778;54.346;10.210;2023-09-19T08:18:36;100068.81;;;18.13;100.00
68793;BME280;55778;54.346;10.210;2023-09-19T08:21:02;100055.00;;;17.80;100.00
68793;BME280;55778;54.346;10.210;2023-09-19T08:23:30;100061.38;;;18.72;100.00
68793;BME280;55778;54.346;10.210;2023-09-19T08:25:57;100051.66;;;18.50;100.00
68793;BME280;55778;54.346;10.210;2023-09-19T08:28:23;100063.28;;;18.19;100.00
68793;BME280;55778;54.346;10.210;2023-09-19T08:30:52;100055.97;;;17.53;100.00
68793;BME280;55778;54.346;10.210;2023-09-19T08:33:18;100046.88;;;17.65;100.00
68793;BME280;55778;54.346;10.210;2023-09-19T08:35:44;100059.19;;;17.16;100.00
68793;BME280;55778;54.346;10.210;2023-09-19T08:38:11;100056.16;;;16.64;100.00
68793;BME280;55778;54.346;10.210;2023-09-19T08:40:38;100056.28;;;16.28;100.00
68793;BME280;55778;54.346;10.210;2023-09-19T08:43:05;100065.41;;;16.56;100.00
68793;BME280;55778;54.346;10.210;2023-09-19T08:45:33;100062.50;;;16.98;100.00
68793;BME280;55778;54.346;10.210;2023-09-19T08:48:23;100059.19;;;17.56;100.00
68793;BME280;55778;54.346;10.210;2023-09-19T08:53:26;100062.88;;;18.68;100.00
68793;BME280;55778;54.346;10.210;2023-09-19T08:55:52;100047.31;;;19.56;100.00
68793;BME280;55778;54.346;10.210;2023-09-19T08:58:21;100058.66;;;18.39;100.00
68793;BME280;55778;54.346;10.210;2023-09-19T09:00:53;100072.00;;;18.10;100.00
68793;BME280;55778;54.346;10.210;2023-09-19T09:03:20;100063.75;;;18.55;100.00
68793;BME280;55778;54.346;10.210;2023-09-19T09:05:47;100060.25;;;19.56;100.00
68793;BME280;55778;54.346;10.210;2023-09-19T09:08:15;100058.84;;;20.16;98.93
68793;BME280;55778;54.346;10.210;2023-09-19T09:10:44;100075.28;;;19.16;100.00
68793;BME280;55778;54.346;10.210;2023-09-19T09:13:10;100074.50;;;17.85;100.00
68793;BME280;55778;54.346;10.210;2023-09-19T09:15:36;100078.34;;;17.37;100.00
68793;BME280;55778;54.346;10.210;2023-09-19T09:18:02;100085.81;;;17.02;100.00
68793;BME280;55778;54.346;10.210;2023-09-19T09:20:28;100078.63;;;16.67;100.00
68793;BME280;55778;54.346;10.210;2023-09-19T09:22:55;100095.06;;;16.40;100.00
68793;BME280;55778;54.346;10.210;2023-09-19T09:25:22;100097.34;;;16.09;100.00
68793;BME280;55778;54.346;10.210;2023-09-19T09:28:01;100101.47;;;16.19;100.00
68793;BME280;55778;54.346;10.210;2023-09-19T09:30:35;100103.50;;;16.11;100.00
68793;BME280;55778;54.346;10.210;2023-09-19T09:33:09;100106.66;;;16.08;100.00
68793;BME280;55778;54.346;10.210;2023-09-19T09:35:37;100118.13;;;16.39;100.00
68793;BME280;55778;54.346;10.210;2023-09-19T09:38:06;100095.38;;;16.45;100.00
68793;BME280;55778;54.346;10.210;2023-09-19T09:40:50;100101.88;;;16.99;100.00
68793;BME280;55778;54.346;10.210;2023-09-19T09:43:36;100095.66;;;17.65;100.00
68793;BME280;55778;54.346;10.210;2023-09-19T09:46:10;100119.84;;;17.76;100.00
68793;BME280;55778;54.346;10.210;2023-09-19T09:49:05;100099.81;;;17.48;100.00
68793;BME280;55778;54.346;10.210;2023-09-19T09:51:59;100105.44;;;17.33;100.00
68793;BME280;55778;54.346;10.210;2023-09-19T09:54:27;100110.50;;;17.30;100.00
68793;BME280;55778;54.346;10.210;2023-09-19T09:56:59;100119.09;;;17.07;100.00
68793;BME280;55778;54.346;10.210;2023-09-19T09:59:51;100117.91;;;16.89;100.00
68793;BME280;55778;54.346;10.210;2023-09-19T10:02:25;100108.78;;;16.82;100.00
68793;BME280;55778;54.346;10.210;2023-09-19T10:04:57;100118.84;;;17.02;100.00
68793;BME280;55778;54.346;10.210;2023-09-19T10:07:47;100106.03;;;17.56;100.00
68793;BME280;55778;54.346;10.210;2023-09-19T10:10:38;100098.69;;;17.36;100.00
68793;BME280;55778;54.346;10.210;2023-09-19T10:13:19;100096.94;;;17.69;100.00
68793;BME280;55778;54.346;10.210;2023-09-19T10:15:49;100095.41;;;17.53;100.00
68793;BME280;55778;54.346;10.210;2023-09-19T10:18:21;100093.63;;;18.13;100.00
68793;BME280;55778;54.346;10.210;2023-09-19T10:20:47;100100.63;;;18.15;100.00
68793;BME280;55778;54.346;10.210;2023-09-19T10:23:15;100102.94;;;18.12;100.00
68793;BME280;55778;54.346;10.210;2023-09-19T10:25:48;100109.38;;;18.38;100.00
68793;BME280;55778;54.346;10.210;2023-09-19T10:28:15;100103.16;;;18.95;100.00
68793;BME280;55778;54.346;10.210;2023-09-19T10:33:13;100115.06;;;18.17;100.00
68793;BME280;55778;54.346;10.210;2023-09-19T10:35:42;100111.88;;;18.27;100.00
68793;BME280;55778;54.346;10.210;2023-09-19T10:38:10;100101.31;;;18.50;100.00
68793;BME280;55778;54.346;10.210;2023-09-19T10:40:37;100118.88;;;18.23;99.64
68793;BME280;55778;54.346;10.210;2023-09-19T10:43:06;100114.88;;;18.19;100.00
68793;BME280;55778;54.346;10.210;2023-09-19T10:45:34;100100.22;;;18.83;96.95
68793;BME280;55778;54.346;10.210;2023-09-19T10:48:00;100099.44;;;19.91;90.79
68793;BME280;55778;54.346;10.210;2023-09-19T10:50:32;100109.63;;;19.90;89.98
68793;BME280;55778;54.346;10.210;2023-09-19T10:53:01;100116.09;;;19.27;94.26
68793;BME280;55778;54.346;10.210;2023-09-19T10:55:31;100110.47;;;19.53;91.34
68793;BME280;55778;54.346;10.210;2023-09-19T10:57:58;100098.47;;;20.03;89.75
68793;BME280;55778;54.346;10.210;2023-09-19T11:00:25;100104.22;;;20.39;83.13
68793;BME280;55778;54.346;10.210;2023-09-19T11:03:32;100117.34;;;19.31;88.14
68793;BME280;55778;54.346;10.210;2023-09-19T11:06:14;100110.66;;;18.75;93.47
68793;BME280;55778;54.346;10.210;2023-09-19T11:09:02;100105.75;;;18.25;98.68
68793;BME280;55778;54.346;10.210;2023-09-19T11:14:16;100103.03;;;19.53;90.70
68793;BME280;55778;54.346;10.210;2023-09-19T11:30:50;100106.59;;;18.71;89.66
68793;BME280;55778;54.346;10.210;2023-09-19T11:33:21;100111.28;;;18.64;91.35
68793;BME280;55778;54.346;10.210;2023-09-19T11:36:14;100107.59;;;19.28;83.88
68793;BME280;55778;54.346;10.210;2023-09-19T11:46:24;100128.22;;;18.22;90.81
68793;BME280;55778;54.346;10.210;2023-09-19T11:48:51;100116.38;;;18.47;90.19
68793;BME280;55778;54.346;10.210;2023-09-19T11:51:22;100117.22;;;18.41;89.13
68793;BME280;55778;54.346;10.210;2023-09-19T11:53:53;100108.47;;;18.12;88.16
68793;BME280;55778;54.346;10.210;2023-09-19T11:56:21;100109.75;;;18.09;88.90
68793;BME280;55778;54.346;10.210;2023-09-19T11:58:53;100105.16;;;18.62;87.79
68793;BME280;55778;54.346;10.210;2023-09-19T12:01:50;100111.19;;;19.09;82.82
68793;BME280;55778;54.346;10.210;2023-09-19T12:04:17;100104.72;;;19.48;79.39
68793;BME280;55778;54.346;10.210;2023-09-19T12:06:56;100098.88;;;19.69;76.90
68793;BME280;55778;54.346;10.210;2023-09-19T12:09:22;100101.13;;;19.85;76.00
68793;BME280;55778;54.346;10.210;2023-09-19T12:11:48;100097.75;;;19.83;78.06
68793;BME280;55778;54.346;10.210;2023-09-19T12:14:24;100099.84;;;19.43;78.77
68793;BME280;55778;54.346;10.210;2023-09-19T12:16:55;100104.19;;;19.13;80.03
68793;BME280;55778;54.346;10.210;2023-09-19T12:19:22;100106.34;;;18.98;79.91
68793;BME280;55778;54.346;10.210;2023-09-19T12:22:15;100111.66;;;19.00;82.52
68793;BME280;55778;54.346;10.210;2023-09-19T12:24:41;100105.28;;;19.06;83.78
68793;BME280;55778;54.346;10.210;2023-09-19T12:27:09;100092.38;;;18.87;84.98
68793;BME280;55778;54.346;10.210;2023-09-19T12:29:47;100094.06;;;18.88;86.55
68793;BME280;55778;54.346;10.210;2023-09-19T12:32:16;100092.56;;;18.72;86.77
68793;BME280;55778;54.346;10.210;2023-09-19T12:34:50;100103.66;;;18.46;89.00
68793;BME280;55778;54.346;10.210;2023-09-19T12:37:17;100093.47;;;18.47;90.42
68793;BME280;55778;54.346;10.210;2023-09-19T12:40:09;100093.25;;;18.48;92.69
68793;BME280;55778;54.346;10.210;2023-09-19T12:42:43;100095.16;;;18.48;92.12
68793;BME280;55778;54.346;10.210;2023-09-19T12:45:10;100122.72;;;18.35;91.50
68793;BME280;55778;54.346;10.210;2023-09-19T12:47:38;100118.44;;;18.06;91.50
68793;BME280;55778;54.346;10.210;2023-09-19T12:50:10;100111.22;;;18.12;92.41
68793;BME280;55778;54.346;10.210;2023-09-19T12:52:45;100107.63;;;18.18;92.00
68793;BME280;55778;54.346;10.210;2023-09-19T13:00:21;100089.63;;;18.61;89.62
68793;BME280;55778;54.346;10.210;2023-09-19T13:03:17;100088.16;;;18.65;87.94
68793;BME280;55778;54.346;10.210;2023-09-19T13:06:03;100087.06;;;18.27;89.36
68793;BME280;55778;54.346;10.210;2023-09-19T13:08:33;100069.03;;;18.50;88.61
68793;BME280;55778;54.346;10.210;2023-09-19T13:13:29;100077.78;;;18.41;90.53
68793;BME280;55778;54.346;10.210;2023-09-19T13:15:55;100074.13;;;18.60;91.14
68793;BME280;55778;54.346;10.210;2023-09-19T13:18:23;100067.56;;;18.48;87.85
68793;BME280;55778;54.346;10.210;2023-09-19T13:21:11;100066.69;;;18.67;88.56
68793;BME280;55778;54.346;10.210;2023-09-19T13:23:54;100063.94;;;18.73;87.38
68793;BME280;55778;54.346;10.210;2023-09-19T13:26:26;100050.31;;;18.91;87.48
68793;BME280;55778;54.346;10.210;2023-09-19T13:28:53;100062.00;;;18.87;86.75
68793;BME280;55778;54.346;10.210;2023-09-19T13:31:19;100054.59;;;18.68;85.94
68793;BME280;55778;54.346;10.210;2023-09-19T13:33:45;100063.94;;;18.73;86.90
68793;BME280;55778;54.346;10.210;2023-09-19T13:36:12;100044.78;;;18.85;88.52
68793;BME280;55778;54.346;10.210;2023-09-19T13:38:39;100050.56;;;18.64;89.84
68793;BME280;55778;54.346;10.210;2023-09-19T13:41:05;100053.31;;;18.64;91.21